Terminal Aerodrome Forecast
Issued by NWS Spokane, WA

Home | Current Version | Previous Version | Text Only | Print | Product List | Glossary On
Versions: 1 2 3 4 5 6 7 8 9 10 11 12 13 14 15 16 17 18 19 20 21 22 23 24 25 26 27 28 29 30 31 32 33 34 35 36 37 38 39
405
FTUS46 KOTX 232339
TAFGEG
TAF
KGEG 232339Z 2400/2424 15007KT P6SM -RA SCT025 OVC040
      TEMPO 2400/2402 6SM -RASN OVC025
     FM240230 12008KT 3/4SM -SN BR SCT008 OVC016
     FM240600 15007KT 5SM -RASN BR SCT004 OVC012
     FM241200 16013KT P6SM VCSH SCT005 OVC008
     FM241800 17011KT P6SM -RA SCT008 OVC014=

USA.gov is the U.S. government's official web portal to all federal, state and local government web resources and services.